createdAt,value
2022-11-09T00:02:24.591Z,3.60
2022-11-09T00:04:51.510Z,3.30
2022-11-09T00:07:18.387Z,2.97
2022-11-09T00:09:45.310Z,2.77
2022-11-09T00:12:12.097Z,2.47
2022-11-09T00:14:39.402Z,3.57
2022-11-09T00:17:06.430Z,1.90
2022-11-09T00:19:33.229Z,2.00
2022-11-09T00:21:59.974Z,2.17
2022-11-09T00:24:26.685Z,2.37
2022-11-09T00:26:53.363Z,2.63
2022-11-09T00:29:20.169Z,2.10
2022-11-09T00:31:47.758Z,3.73
2022-11-09T00:34:14.558Z,4.40
2022-11-09T00:36:41.513Z,2.20
2022-11-09T00:39:09.143Z,1.90
2022-11-09T00:41:36.091Z,1.30
2022-11-09T00:44:02.862Z,2.23
2022-11-09T00:46:29.838Z,2.47
2022-11-09T00:48:56.930Z,2.10
2022-11-09T00:51:23.954Z,3.60
2022-11-09T00:53:54.398Z,2.43
2022-11-09T00:56:21.754Z,3.20
2022-11-09T00:58:52.104Z,3.97
2022-11-09T01:01:18.876Z,2.10
2022-11-09T01:03:46.418Z,1.67
2022-11-09T01:06:22.077Z,2.80
2022-11-09T01:08:49.308Z,3.37
2022-11-09T01:11:18.501Z,1.53
2022-11-09T01:13:46.039Z,2.20
2022-11-09T01:16:16.184Z,3.03
2022-11-09T01:18:43.516Z,2.23
2022-11-09T01:21:12.317Z,2.10
2022-11-09T01:23:40.473Z,2.30
2022-11-09T01:26:09.723Z,1.90
2022-11-09T01:28:37.622Z,2.50
2022-11-09T01:31:06.732Z,2.90
2022-11-09T01:33:34.039Z,2.87
2022-11-09T01:36:09.661Z,2.17
2022-11-09T01:38:37.872Z,3.10
2022-11-09T01:41:09.582Z,2.73
2022-11-09T01:43:36.357Z,1.77
2022-11-09T01:46:08.907Z,4.60
2022-11-09T01:48:56.674Z,3.07
2022-11-09T01:51:35.966Z,2.17
2022-11-09T01:54:16.162Z,2.40
2022-11-09T01:56:45.816Z,3.03
2022-11-09T01:59:17.627Z,1.07
2022-11-09T02:01:45.507Z,2.20
2022-11-09T02:04:24.731Z,1.90
2022-11-09T02:06:52.597Z,2.03
2022-11-09T02:09:22.232Z,2.30
2022-11-09T02:11:49.067Z,2.07
2022-11-09T02:14:16.837Z,2.63
2022-11-09T02:16:45.727Z,3.00
2022-11-09T02:19:12.520Z,4.00
2022-11-09T02:21:39.509Z,2.03
2022-11-09T02:24:06.697Z,1.77
2022-11-09T02:26:42.776Z,2.10
2022-11-09T02:29:12.510Z,3.27
2022-11-09T02:31:44.215Z,3.33
2022-11-09T02:34:17.594Z,1.47
2022-11-09T02:36:44.397Z,1.70
2022-11-09T02:39:13.673Z,2.30
2022-11-09T02:41:47.732Z,1.97
2022-11-09T02:44:16.295Z,1.50
2022-11-09T02:46:43.138Z,3.13
2022-11-09T02:49:09.948Z,1.33
2022-11-09T02:51:37.014Z,2.87
2022-11-09T02:54:04.015Z,1.50
2022-11-09T02:56:30.828Z,4.27
2022-11-09T02:58:57.765Z,2.23
2022-11-09T03:01:24.665Z,2.70
2022-11-09T03:03:51.449Z,3.23
2022-11-09T03:06:18.235Z,2.53
2022-11-09T03:08:45.045Z,2.77
2022-11-09T03:11:11.968Z,1.63
2022-11-09T03:13:38.707Z,2.37
2022-11-09T03:16:06.694Z,2.63
2022-11-09T03:18:33.807Z,1.83
2022-11-09T03:21:05.751Z,2.00
2022-11-09T03:23:33.092Z,1.53
2022-11-09T03:26:00.029Z,2.20
2022-11-09T03:28:27.055Z,3.03
2022-11-09T03:30:53.937Z,2.47
2022-11-09T03:33:20.968Z,2.20
2022-11-09T03:35:47.985Z,2.00
2022-11-09T03:38:14.730Z,2.80
2022-11-09T03:40:41.557Z,3.87
2022-11-09T03:43:08.823Z,2.93
2022-11-09T03:45:35.588Z,2.53
2022-11-09T03:48:02.474Z,2.67
2022-11-09T03:50:31.917Z,2.10
2022-11-09T03:53:00.655Z,2.07
2022-11-09T03:55:28.211Z,2.20
2022-11-09T03:57:55.293Z,1.83
2022-11-09T04:00:23.689Z,3.70
2022-11-09T04:02:50.549Z,2.20
2022-11-09T04:05:17.679Z,2.57
2022-11-09T04:07:49.508Z,3.60
2022-11-09T04:10:16.700Z,1.57
2022-11-09T04:12:43.470Z,2.00
2022-11-09T04:15:10.743Z,2.13
2022-11-09T04:17:37.921Z,2.77
2022-11-09T04:20:06.435Z,2.23
2022-11-09T04:22:33.440Z,7.30
2022-11-09T04:25:00.190Z,4.10
2022-11-09T04:27:27.312Z,1.43
2022-11-09T04:29:54.078Z,3.03
2022-11-09T04:32:20.762Z,2.53
2022-11-09T04:34:47.478Z,3.70
2022-11-09T04:37:14.228Z,3.27
2022-11-09T04:39:40.922Z,3.07
2022-11-09T04:42:07.714Z,1.93
2022-11-09T04:44:34.470Z,4.70
2022-11-09T04:47:01.177Z,2.63
2022-11-09T04:49:27.936Z,2.53
2022-11-09T04:51:54.683Z,5.43
2022-11-09T04:54:21.443Z,4.87
2022-11-09T04:56:48.251Z,3.40
2022-11-09T04:59:15.014Z,2.90
2022-11-09T05:01:41.810Z,3.23
2022-11-09T05:04:08.581Z,4.57
2022-11-09T05:06:35.695Z,3.20
2022-11-09T05:09:07.426Z,1.93
2022-11-09T05:11:35.823Z,4.13
2022-11-09T05:14:03.476Z,2.77
2022-11-09T05:16:30.342Z,3.47
2022-11-09T05:18:57.350Z,3.93
2022-11-09T05:21:24.294Z,2.70
2022-11-09T05:23:59.904Z,3.77
2022-11-09T05:26:37.889Z,2.43
2022-11-09T05:29:07.549Z,4.10
2022-11-09T05:31:34.678Z,2.63
2022-11-09T05:34:01.815Z,2.73
2022-11-09T05:36:30.603Z,2.10
2022-11-09T05:38:58.248Z,3.37
2022-11-09T05:41:25.389Z,2.03
2022-11-09T05:43:52.520Z,4.33
2022-11-09T05:46:19.813Z,2.87
2022-11-09T05:48:47.137Z,3.23
2022-11-09T05:51:14.793Z,3.73
2022-11-09T05:53:46.186Z,2.37
2022-11-09T05:56:14.120Z,2.77
2022-11-09T05:58:41.940Z,2.10
2022-11-09T06:01:16.896Z,1.80
2022-11-09T06:03:44.355Z,4.13
2022-11-09T06:06:14.395Z,2.27
2022-11-09T06:08:41.686Z,4.23
2022-11-09T06:11:10.946Z,2.50
2022-11-09T06:13:38.050Z,2.60
2022-11-09T06:16:06.115Z,3.43
2022-11-09T06:18:34.097Z,2.30
2022-11-09T06:21:03.553Z,3.00
2022-11-09T06:23:30.865Z,2.73
2022-11-09T06:26:09.174Z,5.13
2022-11-09T06:28:38.247Z,2.63
2022-11-09T06:31:08.070Z,6.10
2022-11-09T06:33:36.195Z,2.97
2022-11-09T06:36:03.934Z,2.30
2022-11-09T06:38:30.792Z,3.07
2022-11-09T06:40:58.765Z,2.73
2022-11-09T06:43:26.378Z,3.53
2022-11-09T06:45:53.853Z,3.97
2022-11-09T06:48:21.067Z,2.57
2022-11-09T06:50:47.831Z,2.33
2022-11-09T06:53:16.071Z,2.73
2022-11-09T06:55:47.373Z,3.70
2022-11-09T06:58:17.738Z,4.50
2022-11-09T07:00:45.209Z,4.77
2022-11-09T07:03:16.147Z,1.90
2022-11-09T07:05:43.531Z,3.43
2022-11-09T07:08:11.155Z,3.30
2022-11-09T07:10:38.520Z,1.57
2022-11-09T07:13:06.324Z,3.43
2022-11-09T07:15:34.402Z,3.90
2022-11-09T07:18:02.831Z,2.87
2022-11-09T07:20:31.310Z,4.17
2022-11-09T07:22:58.462Z,6.07
2022-11-09T07:25:27.199Z,3.33
2022-11-09T07:27:54.328Z,4.23
2022-11-09T07:30:21.389Z,2.27
2022-11-09T07:35:35.154Z,5.13
2022-11-09T07:38:02.374Z,4.43
2022-11-09T07:40:29.656Z,5.27
2022-11-09T07:43:04.135Z,4.37
2022-11-09T07:45:31.549Z,5.53
2022-11-09T07:48:00.382Z,2.97
2022-11-09T07:50:29.070Z,2.67
2022-11-09T07:52:56.532Z,2.70
2022-11-09T07:55:24.517Z,3.17
2022-11-09T07:57:56.598Z,3.97
2022-11-09T08:00:24.059Z,2.37
2022-11-09T08:02:50.887Z,4.93
2022-11-09T08:05:17.898Z,3.97
2022-11-09T08:07:44.704Z,3.97
2022-11-09T08:10:11.459Z,3.90
2022-11-09T08:12:38.267Z,6.37
2022-11-09T08:15:06.676Z,5.17
2022-11-09T08:17:33.465Z,5.33
2022-11-09T08:20:00.292Z,3.27
2022-11-09T08:22:27.096Z,4.93
2022-11-09T08:24:53.856Z,4.43
2022-11-09T08:27:22.846Z,3.77
2022-11-09T08:29:49.600Z,5.87
2022-11-09T08:32:16.584Z,4.17
2022-11-09T08:34:47.710Z,3.67
2022-11-09T08:37:15.613Z,4.27
2022-11-09T08:39:42.570Z,3.67
2022-11-09T08:42:09.398Z,4.67
2022-11-09T08:44:36.336Z,3.77
2022-11-09T08:47:03.419Z,6.93
2022-11-09T08:49:30.166Z,3.83
2022-11-09T08:51:56.911Z,4.47
2022-11-09T08:54:24.926Z,9.30
2022-11-09T08:56:54.552Z,6.13
2022-11-09T08:59:21.590Z,4.30
2022-11-09T09:01:48.538Z,3.93
2022-11-09T09:04:15.731Z,5.60
2022-11-09T09:06:42.661Z,3.03
2022-11-09T09:09:10.117Z,5.27
2022-11-09T09:11:37.108Z,5.00
2022-11-09T09:14:03.966Z,3.63
2022-11-09T09:16:30.963Z,6.93
2022-11-09T09:18:57.735Z,6.17
2022-11-09T09:21:24.665Z,4.67
2022-11-09T09:23:51.385Z,5.50
2022-11-09T09:26:18.269Z,5.07
2022-11-09T09:28:45.071Z,5.77
2022-11-09T09:31:15.764Z,6.90
2022-11-09T09:33:45.576Z,3.80
2022-11-09T09:36:21.068Z,4.40
2022-11-09T09:38:52.256Z,3.13
2022-11-09T09:41:39.932Z,3.37
2022-11-09T09:44:14.015Z,6.67
2022-11-09T09:46:46.932Z,3.43
2022-11-09T09:49:36.053Z,2.87
2022-11-09T09:52:24.837Z,2.37
2022-11-09T09:55:08.412Z,3.33
2022-11-09T09:57:41.705Z,5.07
2022-11-09T10:00:21.021Z,4.43
2022-11-09T10:02:49.615Z,5.20
2022-11-09T10:05:18.356Z,5.63
2022-11-09T10:07:56.306Z,4.57
2022-11-09T10:10:40.081Z,3.70
2022-11-09T10:13:09.681Z,4.27
2022-11-09T10:15:55.461Z,4.10
2022-11-09T10:19:14.468Z,3.40
2022-11-09T10:22:06.147Z,2.73
2022-11-09T10:24:48.562Z,4.67
2022-11-09T10:27:36.594Z,4.37
2022-11-09T10:30:17.152Z,3.23
2022-11-09T10:32:47.378Z,4.00
2022-11-09T10:35:14.606Z,5.97
2022-11-09T10:37:50.563Z,2.13
2022-11-09T10:40:38.466Z,3.13
2022-11-09T10:43:14.282Z,5.53
2022-11-09T10:45:43.642Z,8.30
2022-11-09T10:48:13.173Z,3.03
2022-11-09T10:50:54.277Z,3.40
2022-11-09T10:53:29.345Z,5.03
2022-11-09T10:56:10.969Z,2.67
2022-11-09T10:58:40.394Z,3.70
2022-11-09T11:01:16.228Z,3.40
2022-11-09T11:03:44.790Z,3.27
2022-11-09T11:06:27.343Z,6.03
2022-11-09T11:09:08.891Z,6.43
2022-11-09T11:11:38.226Z,3.53
2022-11-09T11:14:28.954Z,3.97
2022-11-09T11:16:56.352Z,5.93
2022-11-09T11:19:36.710Z,4.47
2022-11-09T11:22:12.921Z,4.77
2022-11-09T11:24:56.675Z,4.63
2022-11-09T11:27:56.435Z,6.03
2022-11-09T11:30:31.319Z,3.60
2022-11-09T11:32:59.016Z,4.13
2022-11-09T11:35:45.706Z,2.13
2022-11-09T11:38:19.039Z,4.73
2022-11-09T11:41:10.865Z,3.77
2022-11-09T11:43:51.752Z,3.80
2022-11-09T11:46:34.586Z,8.20
2022-11-09T11:49:11.475Z,3.00
2022-11-09T11:51:49.725Z,3.10
2022-11-09T11:54:32.089Z,5.00
2022-11-09T11:57:23.220Z,8.97
2022-11-09T11:59:50.080Z,4.30
2022-11-09T12:02:35.836Z,4.23
2022-11-09T12:05:22.246Z,5.60
2022-11-09T12:08:23.859Z,4.10
2022-11-09T12:10:56.859Z,2.37
2022-11-09T12:13:49.493Z,2.37
2022-11-09T12:16:36.423Z,3.67
2022-11-09T12:19:35.829Z,5.30
2022-11-09T12:22:22.349Z,2.73
2022-11-09T12:25:01.129Z,2.17
2022-11-09T12:27:55.838Z,2.93
2022-11-09T12:30:26.069Z,5.13
2022-11-09T12:33:15.078Z,2.93
2022-11-09T12:36:04.104Z,2.83
2022-11-09T12:38:59.064Z,4.17
2022-11-09T12:41:31.436Z,4.47
2022-11-09T12:44:16.893Z,3.07
2022-11-09T12:47:00.270Z,5.60
2022-11-09T12:49:35.635Z,4.00
2022-11-09T12:52:07.608Z,4.07
2022-11-09T12:54:42.580Z,2.97
2022-11-09T12:57:13.914Z,2.80
2022-11-09T12:59:48.123Z,3.60
2022-11-09T13:02:27.118Z,3.17
2022-11-09T13:04:59.795Z,3.33
2022-11-09T13:07:53.758Z,7.60
2022-11-09T13:10:26.776Z,5.67
2022-11-09T13:13:12.359Z,3.43
2022-11-09T13:16:00.599Z,5.27
2022-11-09T13:18:48.320Z,4.87
2022-11-09T13:21:24.207Z,5.47
2022-11-09T13:24:02.140Z,4.07
2022-11-09T13:26:32.625Z,5.87
2022-11-09T13:29:40.623Z,2.90
2022-11-09T13:32:13.916Z,3.60
2022-11-09T13:34:45.572Z,5.43
2022-11-09T13:37:34.595Z,4.10
2022-11-09T13:40:02.135Z,5.87
2022-11-09T13:42:34.836Z,2.80
2022-11-09T13:45:28.152Z,2.37
2022-11-09T13:47:55.202Z,5.50
2022-11-09T13:50:27.911Z,3.87
2022-11-09T13:52:57.937Z,2.37
2022-11-09T13:55:38.692Z,3.30
2022-11-09T13:58:14.350Z,4.23
2022-11-09T14:00:46.265Z,5.60
2022-11-09T14:03:23.624Z,4.63
2022-11-09T14:05:54.406Z,2.50
2022-11-09T14:08:50.962Z,2.70
2022-11-09T14:11:44.982Z,3.20
2022-11-09T14:14:46.886Z,4.67
2022-11-09T14:17:52.699Z,6.37
2022-11-09T14:20:19.448Z,3.63
2022-11-09T14:22:47.038Z,5.00
2022-11-09T14:25:19.542Z,5.07
2022-11-09T14:27:57.492Z,4.27
2022-11-09T14:30:31.594Z,4.93
2022-11-09T14:32:59.381Z,4.03
2022-11-09T14:35:31.228Z,5.80
2022-11-09T14:38:00.296Z,6.20
2022-11-09T14:40:29.409Z,4.67
2022-11-09T14:43:04.938Z,10.83
2022-11-09T14:45:31.913Z,3.53
2022-11-09T14:48:00.150Z,5.00
2022-11-09T14:50:33.583Z,4.80
2022-11-09T14:53:02.491Z,7.17
2022-11-09T14:55:37.489Z,4.13
2022-11-09T14:58:04.456Z,10.30
2022-11-09T15:00:35.410Z,6.33
2022-11-09T15:03:29.037Z,1.93
2022-11-09T15:06:11.631Z,5.10
2022-11-09T15:08:49.880Z,5.13
2022-11-09T15:11:16.686Z,2.23
2022-11-09T15:13:43.745Z,5.87
2022-11-09T15:16:21.517Z,6.70
2022-11-09T15:18:49.173Z,4.20
2022-11-09T15:21:27.619Z,6.70
2022-11-09T15:24:25.270Z,4.63
2022-11-09T15:26:54.009Z,5.07
2022-11-09T15:29:28.748Z,5.40
2022-11-09T15:32:20.063Z,6.53
2022-11-09T15:34:57.361Z,3.27
2022-11-09T15:37:29.529Z,5.30
2022-11-09T15:39:58.348Z,3.47
2022-11-09T15:42:27.058Z,5.53
2022-11-09T15:44:56.394Z,4.63
2022-11-09T15:47:36.827Z,3.87
2022-11-09T15:50:16.944Z,5.50
2022-11-09T15:52:44.586Z,4.50
2022-11-09T15:55:16.708Z,4.40
2022-11-09T15:57:44.618Z,6.50
2022-11-09T16:00:19.476Z,4.50
2022-11-09T16:02:47.948Z,5.27
2022-11-09T16:05:15.893Z,5.90
2022-11-09T16:07:49.907Z,6.33
2022-11-09T16:10:20.291Z,5.83
2022-11-09T16:12:47.659Z,7.13
2022-11-09T16:15:14.839Z,3.27
2022-11-09T16:17:41.730Z,5.90
2022-11-09T16:20:09.408Z,4.37
2022-11-09T16:22:36.250Z,4.53
2022-11-09T16:25:03.096Z,4.17
2022-11-09T16:27:49.194Z,5.43
2022-11-09T16:30:17.079Z,6.83
2022-11-09T16:32:43.883Z,9.43
2022-11-09T16:35:28.344Z,3.67
2022-11-09T16:37:58.132Z,4.00
2022-11-09T16:40:26.883Z,5.80
2022-11-09T16:42:53.757Z,5.83
2022-11-09T16:45:21.280Z,6.00
2022-11-09T16:47:53.091Z,8.87
2022-11-09T16:50:20.155Z,7.57
2022-11-09T16:52:47.338Z,9.03
2022-11-09T16:55:14.239Z,5.83
2022-11-09T16:57:41.228Z,9.30
2022-11-09T17:00:09.328Z,11.10
2022-11-09T17:02:36.169Z,6.83
2022-11-09T17:05:03.223Z,7.97
2022-11-09T17:07:30.282Z,8.70
2022-11-09T17:09:57.107Z,5.60
2022-11-09T17:12:23.912Z,7.27
2022-11-09T17:14:50.772Z,5.17
2022-11-09T17:17:22.389Z,4.53
2022-11-09T17:19:50.316Z,9.37
2022-11-09T17:22:18.047Z,12.60
2022-11-09T17:24:45.008Z,6.03
2022-11-09T17:27:12.423Z,6.73
2022-11-09T17:29:40.406Z,8.47
2022-11-09T17:32:09.075Z,7.83
2022-11-09T17:34:36.377Z,9.60
2022-11-09T17:37:05.484Z,7.43
2022-11-09T17:39:33.269Z,9.93
2022-11-09T17:42:00.238Z,5.00
2022-11-09T17:44:27.349Z,7.63
2022-11-09T17:46:54.299Z,7.33
2022-11-09T17:49:21.847Z,9.63
2022-11-09T17:51:49.026Z,9.53
2022-11-09T17:54:15.893Z,11.03
2022-11-09T17:56:42.789Z,8.10
2022-11-09T17:59:10.847Z,6.27
2022-11-09T18:01:41.434Z,4.43
2022-11-09T18:04:10.932Z,5.67
2022-11-09T18:06:38.751Z,3.57
2022-11-09T18:11:52.671Z,7.97
2022-11-09T18:14:19.745Z,4.60
2022-11-09T18:16:46.995Z,5.00
2022-11-09T18:19:13.939Z,10.63
2022-11-09T18:21:41.393Z,8.63
2022-11-09T18:24:09.494Z,5.40
2022-11-09T18:26:36.317Z,9.87
2022-11-09T18:29:03.131Z,8.60
2022-11-09T18:31:30.175Z,8.43
2022-11-09T18:33:56.998Z,9.80
2022-11-09T18:36:23.977Z,10.53
2022-11-09T18:38:53.931Z,5.90
2022-11-09T18:41:22.736Z,7.93
2022-11-09T18:43:51.098Z,9.67
2022-11-09T18:46:22.295Z,7.70
2022-11-09T18:48:53.838Z,12.43
2022-11-09T18:51:20.929Z,12.53
2022-11-09T18:53:48.783Z,8.23
2022-11-09T18:56:23.417Z,5.93
2022-11-09T18:58:56.955Z,9.30
2022-11-09T19:01:25.227Z,5.27
2022-11-09T19:03:56.337Z,11.47
2022-11-09T19:06:25.076Z,9.20
2022-11-09T19:09:10.217Z,9.90
2022-11-09T19:11:37.078Z,8.27
2022-11-09T19:14:04.019Z,9.10
2022-11-09T19:16:31.170Z,6.70
2022-11-09T19:18:58.059Z,6.13
2022-11-09T19:21:35.357Z,8.27
2022-11-09T19:24:03.252Z,7.50
2022-11-09T19:26:30.501Z,10.37
2022-11-09T19:28:57.346Z,8.63
2022-11-09T19:31:24.712Z,7.03
2022-11-09T19:33:52.245Z,9.13
2022-11-09T19:36:30.097Z,5.03
2022-11-09T19:38:57.481Z,11.03
2022-11-09T19:41:25.399Z,16.97
2022-11-09T19:43:54.860Z,10.10
2022-11-09T19:46:22.383Z,7.90
2022-11-09T19:48:49.190Z,6.50
2022-11-09T19:51:17.140Z,9.37
2022-11-09T19:53:52.656Z,15.13
2022-11-09T19:56:21.005Z,9.93
2022-11-09T19:58:50.122Z,9.17
2022-11-09T20:01:17.730Z,8.17
2022-11-09T20:03:44.705Z,8.17
2022-11-09T20:06:11.531Z,10.43
2022-11-09T20:08:38.559Z,5.60
2022-11-09T20:11:10.696Z,8.87
2022-11-09T20:13:38.866Z,4.93
2022-11-09T20:16:08.342Z,8.73
2022-11-09T20:18:36.430Z,9.23
2022-11-09T20:21:04.010Z,4.97
2022-11-09T20:23:30.803Z,8.97
2022-11-09T20:26:08.471Z,5.07
2022-11-09T20:28:35.717Z,6.93
2022-11-09T20:31:12.748Z,5.00
2022-11-09T20:33:39.673Z,7.83
2022-11-09T20:36:06.750Z,5.33
2022-11-09T20:38:33.912Z,8.87
2022-11-09T20:41:03.111Z,8.10
2022-11-09T20:43:30.559Z,6.57
2022-11-09T20:46:04.300Z,7.97
2022-11-09T20:48:52.677Z,5.43
2022-11-09T20:51:19.737Z,7.83
2022-11-09T20:53:48.066Z,12.30
2022-11-09T20:56:15.749Z,8.70
2022-11-09T20:58:42.724Z,8.73
2022-11-09T21:01:14.090Z,8.13
2022-11-09T21:03:41.681Z,7.87
2022-11-09T21:06:09.725Z,5.40
2022-11-09T21:08:36.842Z,8.63
2022-11-09T21:11:05.938Z,8.90
2022-11-09T21:13:33.155Z,8.00
2022-11-09T21:16:12.731Z,7.47
2022-11-09T21:18:40.177Z,10.07
2022-11-09T21:21:19.492Z,5.30
2022-11-09T21:24:05.146Z,10.03
2022-11-09T21:26:50.847Z,8.17
2022-11-09T21:29:38.944Z,7.33
2022-11-09T21:32:07.381Z,7.17
2022-11-09T21:34:37.042Z,7.27
2022-11-09T21:37:05.036Z,7.03
2022-11-09T21:39:32.050Z,7.80
2022-11-09T21:41:58.979Z,8.43
2022-11-09T21:44:28.652Z,6.73
2022-11-09T21:46:55.507Z,10.13
2022-11-09T21:49:22.342Z,9.10
2022-11-09T21:51:49.282Z,9.73
2022-11-09T21:54:16.266Z,8.03
2022-11-09T21:56:43.035Z,7.47
2022-11-09T21:59:10.233Z,10.13
2022-11-09T22:01:37.202Z,11.47
2022-11-09T22:04:04.087Z,6.33
2022-11-09T22:06:31.255Z,8.50
2022-11-09T22:08:58.017Z,5.50
2022-11-09T22:11:45.232Z,9.90
2022-11-09T22:14:32.455Z,6.20
2022-11-09T22:16:59.231Z,8.37
2022-11-09T22:19:45.624Z,9.53
2022-11-09T22:22:13.499Z,9.03
2022-11-09T22:24:40.504Z,9.20
2022-11-09T22:27:07.564Z,8.70
2022-11-09T22:29:34.354Z,7.23
2022-11-09T22:32:01.302Z,11.63
2022-11-09T22:34:28.148Z,11.13
2022-11-09T22:36:54.924Z,13.83
2022-11-09T22:39:22.805Z,6.60
2022-11-09T22:41:49.689Z,12.33
2022-11-09T22:44:16.586Z,14.23
2022-11-09T22:46:43.424Z,8.40
2022-11-09T22:49:10.347Z,6.33
2022-11-09T22:51:37.326Z,11.33
2022-11-09T22:54:04.204Z,7.37
2022-11-09T22:56:30.969Z,7.13
2022-11-09T22:58:57.848Z,10.87
2022-11-09T23:01:24.794Z,16.47
2022-11-09T23:03:52.415Z,6.40
2022-11-09T23:06:21.295Z,5.83
2022-11-09T23:08:48.637Z,7.07
2022-11-09T23:11:20.636Z,8.33
2022-11-09T23:13:52.554Z,14.50
2022-11-09T23:16:20.126Z,8.83
2022-11-09T23:18:56.396Z,8.97
2022-11-09T23:21:32.510Z,11.20
2022-11-09T23:24:01.785Z,7.70
2022-11-09T23:26:29.526Z,9.93
2022-11-09T23:28:56.647Z,8.83
2022-11-09T23:31:24.402Z,10.20
2022-11-09T23:33:56.760Z,7.23
2022-11-09T23:36:24.755Z,6.40
2022-11-09T23:38:52.091Z,11.07
2022-11-09T23:41:19.428Z,11.27
2022-11-09T23:43:49.227Z,7.83
2022-11-09T23:46:17.347Z,9.77
2022-11-09T23:48:44.197Z,5.97
2022-11-09T23:51:11.475Z,10.07
2022-11-09T23:53:38.862Z,9.83
2022-11-09T23:56:10.945Z,7.10
2022-11-09T23:58:38.310Z,8.53
